Time;durP1;ratioP1;P1;durP2;ratioP2;P2;SDS_P1;SDS_P2;PMS_P1;PMS_P2;Temp;Humidity;BMP_temperature;BMP_pressure;BME280_temperature;BME280_humidity;BME280_pressure;Samples;Min_cycle;Max_cycle;Signal;HPM_P1;HPM_P2
2021/07/19 00:01:48;;;;;;;;;;;;;;;29.05;41.57;99919.28;5099653;28;871;-44
2021/07/19 00:04:14;;;;;;;;;;;;;;;29.02;41.87;99930.56;5099507;28;763;-43
2021/07/19 00:06:39;;;;;;;;;;;;;;;29.01;42.18;99934.28;5099453;28;824;-39
2021/07/19 00:09:04;;;;;;;;;;;;;;;29.02;42.00;99933.25;5099399;28;770;-39
2021/07/19 00:11:30;;;;;;;;;;;;;;;29.01;42.20;99931.56;5098757;28;1910;-43
2021/07/19 00:13:55;;;;;;;;;;;;;;;28.94;42.08;99928.91;5099438;28;867;-45
2021/07/19 00:16:21;;;;;;;;;;;;;;;29.04;42.14;99927.63;5099047;28;848;-39
2021/07/19 00:18:46;;;;;;;;;;;;;;;29.01;42.23;99911.81;5099602;28;809;-39
2021/07/19 00:21:11;;;;;;;;;;;;;;;29.03;42.06;99907.03;5098954;28;835;-41
2021/07/19 00:23:37;;;;;;;;;;;;;;;29.03;42.27;99913.25;5098875;28;832;-38
2021/07/19 00:26:02;;;;;;;;;;;;;;;29.05;42.03;99904.91;5098728;28;958;-45
2021/07/19 00:28:27;;;;;;;;;;;;;;;29.02;42.27;99908.91;5098923;28;744;-37
2021/07/19 00:30:52;;;;;;;;;;;;;;;29.06;41.92;99920.94;5098665;28;1972;-46
2021/07/19 00:33:18;;;;;;;;;;;;;;;29.03;42.08;99924.09;5099241;28;725;-38
2021/07/19 00:35:43;;;;;;;;;;;;;;;29.06;42.04;99923.66;5098501;28;882;-36
2021/07/19 00:38:08;;;;;;;;;;;;;;;29.05;41.98;99915.75;5098900;28;801;-38
2021/07/19 00:40:36;;;;;;;;;;;;;;;29.00;42.28;99910.13;5098842;28;759;-37
2021/07/19 00:43:01;;;;;;;;;;;;;;;29.02;42.22;99902.63;5098221;28;1006;-44
2021/07/19 00:45:27;;;;;;;;;;;;;;;28.99;42.13;99884.97;5098904;28;810;-37
2021/07/19 00:47:53;;;;;;;;;;;;;;;29.06;42.14;99872.19;5098146;28;1074;-40
2021/07/19 00:50:18;;;;;;;;;;;;;;;28.96;42.40;99866.41;5098402;28;1905;-37
2021/07/19 00:52:44;;;;;;;;;;;;;;;29.01;42.53;99861.19;5080167;28;1349;-46
2021/07/19 00:55:09;;;;;;;;;;;;;;;29.03;42.52;99864.50;5077978;28;776;-46
2021/07/19 00:57:35;;;;;;;;;;;;;;;29.01;42.70;99873.91;5092953;28;951;-45
2021/07/19 01:00:01;;;;;;;;;;;;;;;29.03;42.51;99872.63;5080450;28;756;-44
2021/07/19 01:02:27;;;;;;;;;;;;;;;29.04;42.16;99876.19;5098239;28;905;-38
2021/07/19 01:04:52;;;;;;;;;;;;;;;29.10;42.23;99878.00;5098168;28;732;-44
2021/07/19 01:07:17;;;;;;;;;;;;;;;29.07;42.17;99884.72;5098092;28;724;-43
2021/07/19 01:09:42;;;;;;;;;;;;;;;29.04;42.40;99877.03;5097856;28;771;-39
2021/07/19 01:12:08;;;;;;;;;;;;;;;29.06;42.16;99876.81;5097525;28;1902;-40
2021/07/19 01:14:33;;;;;;;;;;;;;;;29.09;42.24;99870.94;5098015;28;789;-44
2021/07/19 01:16:58;;;;;;;;;;;;;;;29.11;42.18;99868.84;5098341;28;767;-37
2021/07/19 01:19:24;;;;;;;;;;;;;;;29.11;42.22;99871.56;5098018;28;833;-44
2021/07/19 01:21:52;;;;;;;;;;;;;;;29.08;42.39;99869.28;5079843;28;780;-38
2021/07/19 01:24:24;;;;;;;;;;;;;;;29.15;42.06;99861.09;5079409;28;863;-35
2021/07/19 01:26:58;;;;;;;;;;;;;;;29.06;42.22;99857.84;5070940;28;971;-39
2021/07/19 01:29:23;;;;;;;;;;;;;;;29.08;42.33;99866.56;5077693;28;795;-37
2021/07/19 01:31:49;;;;;;;;;;;;;;;29.09;42.25;99866.34;5059639;28;1898;-38
2021/07/19 01:34:18;;;;;;;;;;;;;;;29.07;42.25;99868.47;5077371;28;753;-44
2021/07/19 01:36:44;;;;;;;;;;;;;;;29.15;42.33;99870.06;5058880;28;970;-45
2021/07/19 01:39:10;;;;;;;;;;;;;;;29.13;42.23;99871.34;5059442;28;748;-37
2021/07/19 01:41:36;;;;;;;;;;;;;;;29.20;42.09;99869.41;5084073;28;950;-44
2021/07/19 01:44:02;;;;;;;;;;;;;;;29.16;42.09;99868.19;5097500;28;851;-44
2021/07/19 01:46:27;;;;;;;;;;;;;;;29.18;42.31;99868.78;5078919;28;1014;-40
2021/07/19 01:48:52;;;;;;;;;;;;;;;29.18;42.16;99871.50;5097453;28;1115;-46
2021/07/19 01:51:17;;;;;;;;;;;;;;;29.17;42.08;99865.28;5090634;28;1973;-44
2021/07/19 01:53:43;;;;;;;;;;;;;;;29.18;42.34;99871.50;5058860;28;792;-39
2021/07/19 01:56:09;;;;;;;;;;;;;;;29.12;42.63;99866.97;5061688;28;1153;-38
2021/07/19 01:58:34;;;;;;;;;;;;;;;29.18;42.51;99882.34;5097027;28;863;-44
2021/07/19 02:00:59;;;;;;;;;;;;;;;29.16;42.25;99885.25;5078988;28;772;-38
2021/07/19 02:03:24;;;;;;;;;;;;;;;29.25;42.27;99885.00;5078867;28;760;-39
2021/07/19 02:05:50;;;;;;;;;;;;;;;29.19;42.33;99895.69;5097049;28;795;-39
2021/07/19 02:08:16;;;;;;;;;;;;;;;29.21;42.31;99895.47;5078833;28;832;-43
2021/07/19 02:10:41;;;;;;;;;;;;;;;29.14;42.47;99900.06;5097095;28;1949;-41
2021/07/19 02:13:06;;;;;;;;;;;;;;;29.22;41.59;99899.81;5077973;28;982;-38
2021/07/19 02:15:32;;;;;;;;;;;;;;;29.09;42.01;99908.84;5078828;28;764;-40
2021/07/19 02:17:58;;;;;;;;;;;;;;;28.70;47.71;99906.94;5079163;28;579;-42
2021/07/19 02:20:23;;;;;;;;;;;;;;;28.76;44.11;99897.09;5096766;28;736;-39
2021/07/19 02:22:49;;;;;;;;;;;;;;;29.04;43.22;99895.97;5077459;28;992;-38
2021/07/19 02:25:14;;;;;;;;;;;;;;;29.06;43.06;99907.41;5078438;28;811;-45
2021/07/19 02:27:44;;;;;;;;;;;;;;;29.14;42.75;99908.19;5095941;28;962;-41
2021/07/19 02:30:10;;;;;;;;;;;;;;;29.15;42.83;99915.25;5078997;28;839;-44
2021/07/19 02:32:36;;;;;;;;;;;;;;;29.19;42.62;99921.94;5096726;28;1914;-43
2021/07/19 02:35:02;;;;;;;;;;;;;;;29.10;42.55;99921.34;5078786;28;841;-44
2021/07/19 02:37:27;;;;;;;;;;;;;;;29.16;42.78;99923.16;5096626;28;819;-38
2021/07/19 02:39:52;;;;;;;;;;;;;;;29.15;42.81;99926.09;5096952;28;756;-40
2021/07/19 02:42:19;;;;;;;;;;;;;;;29.24;42.66;99929.38;5096139;28;1092;-39
2021/07/19 02:44:44;;;;;;;;;;;;;;;29.21;42.53;99930.66;5078372;28;1088;-37
2021/07/19 02:47:09;;;;;;;;;;;;;;;29.21;42.59;99933.38;5096412;28;1020;-43
2021/07/19 02:49:35;;;;;;;;;;;;;;;29.17;42.64;99924.84;5078160;28;829;-44
2021/07/19 02:52:00;;;;;;;;;;;;;;;29.24;42.41;99927.53;5077083;28;1917;-39
2021/07/19 02:54:26;;;;;;;;;;;;;;;29.21;42.41;99926.06;5078787;28;748;-38
2021/07/19 02:56:51;;;;;;;;;;;;;;;29.17;42.56;99930.28;5095893;28;927;-44
2021/07/19 02:59:16;;;;;;;;;;;;;;;29.18;42.60;99917.53;5078643;28;796;-44
2021/07/19 03:01:41;;;;;;;;;;;;;;;29.18;42.86;99923.78;5096918;28;756;-43
2021/07/19 03:04:07;;;;;;;;;;;;;;;29.16;42.62;99930.50;5096256;28;803;-42
2021/07/19 03:06:33;;;;;;;;;;;;;;;29.19;42.65;99927.34;5096548;28;816;-43
2021/07/19 03:08:59;;;;;;;;;;;;;;;29.19;42.78;99925.47;5078415;28;767;-40
2021/07/19 03:11:27;;;;;;;;;;;;;;;29.21;42.74;99939.59;5077339;28;1894;-39
2021/07/19 03:13:56;;;;;;;;;;;;;;;29.24;42.75;99932.94;5096568;28;835;-45
2021/07/19 03:16:22;;;;;;;;;;;;;;;29.00;44.71;99932.63;5077808;28;839;-43
2021/07/19 03:18:47;;;;;;;;;;;;;;;28.93;45.87;99926.38;5096529;28;807;-43
2021/07/19 03:21:14;;;;;;;;;;;;;;;28.55;48.65;99926.13;5078497;28;756;-43
2021/07/19 03:23:40;;;;;;;;;;;;;;;28.60;48.29;99918.19;5078009;28;847;-42
2021/07/19 03:26:05;;;;;;;;;;;;;;;28.60;48.53;99925.47;5095747;28;963;-42
2021/07/19 03:28:30;;;;;;;;;;;;;;;28.59;49.21;99924.63;5078190;28;550;-42
2021/07/19 03:30:56;;;;;;;;;;;;;;;28.74;47.76;99928.97;5095949;28;1975;-42
2021/07/19 03:33:22;;;;;;;;;;;;;;;28.71;49.80;99935.63;5098196;28;771;-42
2021/07/19 03:35:47;;;;;;;;;;;;;;;28.66;50.92;99929.22;5081920;28;811;-43
2021/07/19 03:38:13;;;;;;;;;;;;;;;28.83;50.15;99924.97;5100222;28;732;-42
2021/07/19 03:40:38;;;;;;;;;;;;;;;28.75;49.88;99919.81;5082009;28;824;-42
2021/07/19 03:43:04;;;;;;;;;;;;;;;28.64;48.52;99926.72;5061509;28;994;-42
2021/07/19 03:45:29;;;;;;;;;;;;;;;28.63;45.73;99922.34;5061584;28;800;-42
2021/07/19 03:47:54;;;;;;;;;;;;;;;28.64;44.86;99923.19;5087949;28;1113;-40
2021/07/19 03:50:20;;;;;;;;;;;;;;;28.63;45.37;99924.25;5081518;28;744;-41
2021/07/19 03:52:48;;;;;;;;;;;;;;;27.65;50.01;99836.38;5098155;28;1906;-41
2021/07/19 03:55:14;;;;;;;;;;;;;;;28.24;50.58;99939.25;5099635;28;756;-40
2021/07/19 03:57:40;;;;;;;;;;;;;;;28.87;46.48;99951.63;5114011;28;1159;-38
2021/07/19 04:00:09;;;;;;;;;;;;;;;29.07;43.43;99954.28;5119899;28;779;-37
2021/07/19 04:02:35;;;;;;;;;;;;;;;29.05;41.68;99962.59;5120233;28;724;-44
2021/07/19 04:05:07;;;;;;;;;;;;;;;29.08;41.53;99974.88;5119788;28;792;-44
2021/07/19 04:07:36;;;;;;;;;;;;;;;29.04;41.90;99976.38;5102497;28;843;-39
2021/07/19 04:10:03;;;;;;;;;;;;;;;28.98;42.24;99979.94;5119680;28;795;-44
2021/07/19 04:12:28;;;;;;;;;;;;;;;28.83;41.79;99973.69;5100765;28;1898;-33
2021/07/19 04:14:53;;;;;;;;;;;;;;;28.76;41.50;99977.47;5120116;28;850;-38
2021/07/19 04:17:19;;;;;;;;;;;;;;;28.84;40.86;99969.94;5119531;28;771;-36
2021/07/19 04:19:45;;;;;;;;;;;;;;;28.74;40.97;99966.88;5100926;28;1023;-34
2021/07/19 04:22:13;;;;;;;;;;;;;;;28.72;40.45;99964.38;5119416;28;858;-38
2021/07/19 04:24:39;;;;;;;;;;;;;;;28.69;40.17;99967.50;5119384;28;747;-44
2021/07/19 04:27:04;;;;;;;;;;;;;;;28.54;41.94;99965.06;5101152;28;946;-41
2021/07/19 04:29:29;;;;;;;;;;;;;;;28.77;42.05;99962.91;5100835;28;872;-44
2021/07/19 04:31:55;;;;;;;;;;;;;;;28.75;41.58;99965.81;5119452;28;1906;-46
2021/07/19 04:34:30;;;;;;;;;;;;;;;28.79;40.62;99967.06;5119090;28;851;-41
2021/07/19 04:37:02;;;;;;;;;;;;;;;28.83;39.93;99960.16;5119346;28;776;-43
2021/07/19 04:39:28;;;;;;;;;;;;;;;28.95;39.72;99962.19;5118819;28;881;-41
2021/07/19 04:41:53;;;;;;;;;;;;;;;28.92;39.27;99952.66;5100242;28;954;-32
2021/07/19 04:44:18;;;;;;;;;;;;;;;28.94;39.14;99944.31;5118090;28;735;-32
2021/07/19 04:46:44;;;;;;;;;;;;;;;28.83;38.86;99946.63;5118772;28;823;-32
2021/07/19 04:49:09;;;;;;;;;;;;;;;28.87;38.46;99928.09;5099008;28;1081;-40
2021/07/19 04:51:35;;;;;;;;;;;;;;;28.91;38.32;99904.94;5089362;28;1966;-42
2021/07/19 04:54:00;;;;;;;;;;;;;;;28.80;38.83;99902.91;5077822;28;871;-40
2021/07/19 04:56:25;;;;;;;;;;;;;;;28.93;38.25;99908.28;5065761;28;932;-35
2021/07/19 04:58:51;;;;;;;;;;;;;;;28.90;38.13;99927.66;5098122;28;828;-33
2021/07/19 05:01:17;;;;;;;;;;;;;;;28.85;38.06;99941.84;5080197;28;796;-41
2021/07/19 05:03:43;;;;;;;;;;;;;;;28.89;37.99;99938.69;5098013;28;836;-33
2021/07/19 05:06:10;;;;;;;;;;;;;;;28.91;37.66;99940.13;5080469;28;772;-44
2021/07/19 05:08:35;;;;;;;;;;;;;;;28.90;37.44;99941.19;5098456;28;728;-44
2021/07/19 05:11:00;;;;;;;;;;;;;;;28.79;37.88;99952.69;5079926;28;1898;-42
2021/07/19 05:13:27;;;;;;;;;;;;;;;28.85;37.71;99955.38;5097563;28;827;-33
2021/07/19 05:15:52;;;;;;;;;;;;;;;28.80;37.68;99968.72;5098191;28;785;-41
2021/07/19 05:18:18;;;;;;;;;;;;;;;28.82;37.89;99976.63;5079670;28;993;-33
2021/07/19 05:20:44;;;;;;;;;;;;;;;28.78;37.98;99973.50;5097755;28;799;-44
2021/07/19 05:23:09;;;;;;;;;;;;;;;28.91;38.14;99963.69;5098246;28;772;-43
2021/07/19 05:25:35;;;;;;;;;;;;;;;28.91;37.62;99963.69;5097411;28;866;-34
2021/07/19 05:28:06;;;;;;;;;;;;;;;28.84;37.30;99966.41;5097328;28;998;-32
2021/07/19 05:30:32;;;;;;;;;;;;;;;28.81;37.50;99972.25;5097364;28;1952;-34
2021/07/19 05:32:57;;;;;;;;;;;;;;;28.72;37.57;99971.66;5097521;28;764;-37
2021/07/19 05:35:22;;;;;;;;;;;;;;;28.77;37.63;99971.00;5097770;28;827;-35
2021/07/19 05:37:48;;;;;;;;;;;;;;;28.85;37.67;99971.63;5097257;28;788;-35
2021/07/19 05:40:13;;;;;;;;;;;;;;;29.02;37.71;99973.03;5098022;28;760;-32
2021/07/19 05:42:39;;;;;;;;;;;;;;;29.04;37.93;99979.06;5097454;28;955;-33
2021/07/19 05:45:05;;;;;;;;;;;;;;;28.95;37.61;99979.28;5097884;28;718;-41
2021/07/19 05:47:30;;;;;;;;;;;;;;;28.90;37.31;99965.56;5097567;28;1031;-40
2021/07/19 05:49:56;;;;;;;;;;;;;;;28.82;37.14;99966.63;5097403;28;756;-35
2021/07/19 05:52:21;;;;;;;;;;;;;;;28.92;37.25;99963.47;5081762;28;1982;-35
2021/07/19 05:54:46;;;;;;;;;;;;;;;28.92;37.27;99962.63;5077080;28;768;-38
2021/07/19 05:57:12;;;;;;;;;;;;;;;28.94;36.86;99961.38;5088513;28;989;-37
2021/07/19 05:59:37;;;;;;;;;;;;;;;28.88;37.08;99956.00;5079237;28;756;-43
2021/07/19 06:02:02;;;;;;;;;;;;;;;28.85;37.18;99963.50;5097070;28;847;-37
2021/07/19 06:04:27;;;;;;;;;;;;;;;28.89;37.26;99965.78;5096822;28;828;-46
2021/07/19 06:06:53;;;;;;;;;;;;;;;28.86;37.21;99972.47;5097382;28;823;-37
2021/07/19 06:09:18;;;;;;;;;;;;;;;28.82;37.31;99966.63;5096950;28;760;-38
2021/07/19 06:11:43;;;;;;;;;;;;;;;28.82;37.08;99976.63;5096230;28;1906;-35
2021/07/19 06:14:09;;;;;;;;;;;;;;;28.83;37.16;99970.16;5097115;28;760;-34
2021/07/19 06:16:34;;;;;;;;;;;;;;;28.88;37.03;99981.19;5096832;28;783;-34
2021/07/19 06:18:59;;;;;;;;;;;;;;;28.81;37.55;99977.69;5097176;28;799;-33
2021/07/19 06:21:25;;;;;;;;;;;;;;;28.92;37.12;99976.16;5096582;28;886;-36
2021/07/19 06:23:50;;;;;;;;;;;;;;;28.82;37.53;99979.31;5096911;28;802;-37
2021/07/19 06:26:15;;;;;;;;;;;;;;;28.77;37.51;99973.72;5096665;28;942;-39
2021/07/19 06:28:40;;;;;;;;;;;;;;;28.92;37.28;99985.13;5097171;28;838;-43
2021/07/19 06:31:06;;;;;;;;;;;;;;;28.94;37.53;99982.22;5096426;28;1897;-39
2021/07/19 06:33:31;;;;;;;;;;;;;;;28.89;37.52;99984.72;5096821;28;772;-46
2021/07/19 06:35:57;;;;;;;;;;;;;;;28.85;37.67;99982.44;5096360;28;889;-40
2021/07/19 06:38:22;;;;;;;;;;;;;;;28.97;37.55;99976.38;5095628;28;989;-37
2021/07/19 06:40:47;;;;;;;;;;;;;;;28.96;37.67;99993.66;5096594;28;950;-37
2021/07/19 06:43:13;;;;;;;;;;;;;;;28.95;37.65;99990.13;5095447;28;811;-39
2021/07/19 06:45:38;;;;;;;;;;;;;;;28.90;37.64;99984.50;5096666;28;814;-38
2021/07/19 06:48:03;;;;;;;;;;;;;;;28.91;37.79;99988.06;5096438;28;1261;-35
2021/07/19 06:50:29;;;;;;;;;;;;;;;28.89;37.80;99990.97;5096305;28;802;-37
2021/07/19 06:52:54;;;;;;;;;;;;;;;28.91;38.13;99988.06;5076738;28;1910;-37
2021/07/19 06:55:19;;;;;;;;;;;;;;;28.94;38.21;99995.75;5076114;28;784;-37
2021/07/19 06:57:45;;;;;;;;;;;;;;;28.90;38.17;99992.63;5093044;28;1064;-37
2021/07/19 07:00:10;;;;;;;;;;;;;;;28.92;38.10;99987.00;5096396;28;855;-38
2021/07/19 07:02:36;;;;;;;;;;;;;;;28.93;38.21;99985.94;5096518;28;782;-40
2021/07/19 07:05:01;;;;;;;;;;;;;;;28.94;38.24;99995.75;5096494;28;747;-38
2021/07/19 07:07:26;;;;;;;;;;;;;;;28.88;38.32;99985.78;5097077;28;774;-42
2021/07/19 07:09:52;;;;;;;;;;;;;;;28.94;38.50;99974.94;5100447;28;744;-35
2021/07/19 07:12:17;;;;;;;;;;;;;;;28.95;38.42;99978.44;5099555;28;1901;-35
2021/07/19 07:14:42;;;;;;;;;;;;;;;28.88;38.51;99983.06;5100482;28;748;-35
2021/07/19 07:17:07;;;;;;;;;;;;;;;28.87;38.55;99982.22;5100336;28;748;-36
2021/07/19 07:19:33;;;;;;;;;;;;;;;28.81;38.65;99978.50;5100361;28;804;-37
2021/07/19 07:21:58;;;;;;;;;;;;;;;28.82;39.00;99976.63;5099512;28;1524;-39
2021/07/19 07:24:24;;;;;;;;;;;;;;;28.79;39.15;99977.91;5099711;28;866;-37
2021/07/19 07:26:49;;;;;;;;;;;;;;;28.80;38.93;99974.13;5099700;28;950;-38
2021/07/19 07:29:15;;;;;;;;;;;;;;;28.78;39.10;99978.91;5100608;28;779;-35
2021/07/19 07:31:40;;;;;;;;;;;;;;;28.78;38.94;99976.22;5099375;28;1962;-37
2021/07/19 07:34:05;;;;;;;;;;;;;;;28.73;39.12;99968.75;5099746;28;748;-35
2021/07/19 07:36:33;;;;;;;;;;;;;;;28.72;39.11;99964.38;5100058;28;776;-36
2021/07/19 07:38:58;;;;;;;;;;;;;;;28.82;39.00;99973.91;5099442;28;1107;-36
2021/07/19 07:41:24;;;;;;;;;;;;;;;28.84;39.05;99969.94;5099338;28;955;-35
2021/07/19 07:43:49;;;;;;;;;;;;;;;28.80;39.27;99954.34;5099873;28;799;-34
2021/07/19 07:46:15;;;;;;;;;;;;;;;28.81;38.96;99956.03;5099838;28;767;-35
2021/07/19 07:48:40;;;;;;;;;;;;;;;28.88;39.03;99958.72;5099547;28;1244;-37
2021/07/19 07:51:06;;;;;;;;;;;;;;;28.76;39.48;99967.47;5094517;28;1902;-36
2021/07/19 07:53:31;;;;;;;;;;;;;;;28.83;38.86;99964.75;5079331;28;752;-38
2021/07/19 07:55:58;;;;;;;;;;;;;;;28.74;39.23;99950.63;5080686;28;923;-34
2021/07/19 07:58:24;;;;;;;;;;;;;;;28.77;39.26;99954.78;5099467;28;780;-37
2021/07/19 08:00:49;;;;;;;;;;;;;;;28.80;39.48;99951.63;5099584;28;1018;-36
2021/07/19 08:03:14;;;;;;;;;;;;;;;28.72;39.35;99958.97;5099368;28;835;-35
2021/07/19 08:05:39;;;;;;;;;;;;;;;28.82;39.28;99954.97;5099602;28;799;-35
2021/07/19 08:08:05;;;;;;;;;;;;;;;28.80;39.39;99954.34;5099501;28;778;-36
2021/07/19 08:10:30;;;;;;;;;;;;;;;28.80;39.46;99951.63;5099381;28;775;-38
2021/07/19 08:12:56;;;;;;;;;;;;;;;28.91;39.28;99960.97;5098623;28;1905;-37
2021/07/19 08:15:21;;;;;;;;;;;;;;;28.89;39.68;99960.34;5099070;28;918;-41
2021/07/19 08:17:47;;;;;;;;;;;;;;;29.03;39.21;99947.63;5099236;28;854;-37
2021/07/19 08:20:12;;;;;;;;;;;;;;;28.92;39.43;99949.09;5098846;28;921;-36
2021/07/19 08:22:37;;;;;;;;;;;;;;;28.90;39.60;99934.94;5098984;28;744;-37
2021/07/19 08:25:03;;;;;;;;;;;;;;;28.81;40.05;99942.50;5099108;28;750;-38
2021/07/19 08:27:28;;;;;;;;;;;;;;;28.89;39.97;99944.13;5098235;28;923;-39
2021/07/19 08:29:54;;;;;;;;;;;;;;;28.85;40.04;99941.84;5099429;28;878;-38
2021/07/19 08:32:19;;;;;;;;;;;;;;;28.96;39.96;99934.09;5098436;28;1978;-36
2021/07/19 08:34:45;;;;;;;;;;;;;;;28.84;39.65;99940.16;5098500;28;846;-35
2021/07/19 08:37:12;;;;;;;;;;;;;;;28.80;40.35;99943.50;5098926;28;820;-36
2021/07/19 08:39:37;;;;;;;;;;;;;;;28.76;40.39;99937.69;5098329;28;1484;-43
2021/07/19 08:42:03;;;;;;;;;;;;;;;28.75;40.33;99946.88;5098448;28;966;-36
2021/07/19 08:44:28;;;;;;;;;;;;;;;28.73;40.42;99938.13;5080870;28;827;-35
2021/07/19 08:46:53;;;;;;;;;;;;;;;28.84;40.41;99944.75;5080678;28;1096;-32
2021/07/19 08:49:18;;;;;;;;;;;;;;;28.94;40.07;99947.00;5098752;28;823;-37
2021/07/19 08:51:44;;;;;;;;;;;;;;;29.15;39.57;99936.94;5098196;28;1989;-34
2021/07/19 08:54:11;;;;;;;;;;;;;;;29.03;37.61;99944.94;5098441;28;823;-36
2021/07/19 08:56:36;;;;;;;;;;;;;;;29.05;39.09;99951.78;5098011;28;935;-41
2021/07/19 08:59:01;;;;;;;;;;;;;;;29.09;39.18;99947.56;5080196;28;836;-35
2021/07/19 09:01:27;;;;;;;;;;;;;;;29.10;39.29;99940.28;5098152;28;783;-45
2021/07/19 09:03:52;;;;;;;;;;;;;;;29.16;39.22;99942.13;5098168;28;858;-35
2021/07/19 09:06:17;;;;;;;;;;;;;;;29.09;39.28;99941.34;5098330;28;815;-47
2021/07/19 09:08:52;;;;;;;;;;;;;;;29.08;39.19;99937.81;5098059;28;841;-38
2021/07/19 09:11:21;;;;;;;;;;;;;;;29.13;39.17;99941.75;5097714;28;1977;-37
2021/07/19 09:13:59;;;;;;;;;;;;;;;29.15;39.20;99943.19;5097866;28;832;-42
2021/07/19 09:16:25;;;;;;;;;;;;;;;29.18;39.17;99944.63;5098095;28;779;-44
2021/07/19 09:19:06;;;;;;;;;;;;;;;29.11;39.23;99946.56;5097875;28;746;-34
2021/07/19 09:21:32;;;;;;;;;;;;;;;29.15;39.26;99951.31;5098032;28;768;-36
2021/07/19 09:24:06;;;;;;;;;;;;;;;29.10;39.31;99945.72;5097812;28;843;-42
2021/07/19 09:26:33;;;;;;;;;;;;;;;29.11;39.55;99957.38;5097491;28;970;-36
2021/07/19 09:28:58;;;;;;;;;;;;;;;29.33;39.21;99955.16;5097727;28;740;-39
2021/07/19 09:31:39;;;;;;;;;;;;;;;29.38;39.14;99949.91;5097113;28;1969;-37
2021/07/19 09:34:11;;;;;;;;;;;;;;;29.45;39.45;99950.72;5097318;28;836;-38
2021/07/19 09:36:36;;;;;;;;;;;;;;;29.48;40.08;99945.94;5097706;28;834;-48
2021/07/19 09:39:07;;;;;;;;;;;;;;;29.53;43.86;99949.63;5097855;28;831;-45
2021/07/19 09:41:33;;;;;;;;;;;;;;;29.46;45.27;99949.66;5097084;28;1021;-38
2021/07/19 09:43:58;;;;;;;;;;;;;;;29.52;45.13;99950.69;5078577;28;785;-38
2021/07/19 09:46:32;;;;;;;;;;;;;;;29.56;44.89;99948.38;5079321;28;827;-45
2021/07/19 09:48:58;;;;;;;;;;;;;;;29.30;45.11;99953.72;5097205;28;1114;-40
2021/07/19 09:51:27;;;;;;;;;;;;;;;29.38;45.02;99943.69;5090397;28;1909;-38
2021/07/19 09:53:52;;;;;;;;;;;;;;;29.75;49.13;99949.28;5077020;28;819;-40
2021/07/19 09:56:22;;;;;;;;;;;;;;;30.06;50.69;99947.56;5083630;28;876;-39
2021/07/19 09:58:51;;;;;;;;;;;;;;;30.31;47.47;99951.34;5097925;28;775;-41
2021/07/19 10:01:29;;;;;;;;;;;;;;;30.23;44.87;99952.44;5097337;28;818;-39
2021/07/19 10:04:04;;;;;;;;;;;;;;;30.05;44.01;99950.50;5079145;28;740;-38
2021/07/19 10:06:29;;;;;;;;;;;;;;;30.11;42.37;99952.34;5097633;28;823;-40
2021/07/19 10:08:57;;;;;;;;;;;;;;;30.00;42.07;99948.47;5097129;28;787;-39
2021/07/19 10:11:23;;;;;;;;;;;;;;;29.85;41.46;99946.06;5096447;28;1976;-42
2021/07/19 10:13:49;;;;;;;;;;;;;;;29.78;41.08;99945.31;5097006;28;739;-39
2021/07/19 10:16:14;;;;;;;;;;;;;;;29.83;39.85;99942.75;5096893;28;882;-34
2021/07/19 10:18:39;;;;;;;;;;;;;;;29.78;39.20;99934.47;5078584;28;1682;-41
2021/07/19 10:21:06;;;;;;;;;;;;;;;29.73;38.80;99939.72;5097099;28;787;-34
2021/07/19 10:23:31;;;;;;;;;;;;;;;29.68;38.25;99932.25;5078587;28;851;-39
2021/07/19 10:25:57;;;;;;;;;;;;;;;29.55;38.16;99944.81;5096523;28;1021;-40
2021/07/19 10:28:22;;;;;;;;;;;;;;;29.52;37.86;99929.00;5079079;28;835;-38
2021/07/19 10:30:47;;;;;;;;;;;;;;;29.45;37.56;99937.19;5096906;28;1970;-42
2021/07/19 10:33:13;;;;;;;;;;;;;;;29.46;37.05;99933.41;5096817;28;776;-42
2021/07/19 10:35:38;;;;;;;;;;;;;;;29.38;35.69;99935.56;5096623;28;767;-42
2021/07/19 10:38:13;;;;;;;;;;;;;;;29.31;36.44;99947.25;5096770;28;847;-39
2021/07/19 10:40:39;;;;;;;;;;;;;;;29.26;35.25;99938.13;5079248;28;796;-33
2021/07/19 10:43:05;;;;;;;;;;;;;;;28.91;34.42;99936.63;5097960;28;990;-34
2021/07/19 10:45:36;;;;;;;;;;;;;;;28.86;34.94;99921.03;5100667;28;772;-36
2021/07/19 10:48:02;;;;;;;;;;;;;;;29.02;35.69;99935.13;5100640;28;1038;-43
2021/07/19 10:50:27;;;;;;;;;;;;;;;28.76;35.63;99928.75;5101324;28;744;-35
2021/07/19 10:52:56;;;;;;;;;;;;;;;28.89;36.44;99925.16;5100298;28;1909;-33
2021/07/19 10:55:25;;;;;;;;;;;;;;;28.75;37.37;99936.03;5100292;28;837;-32
2021/07/19 10:57:58;;;;;;;;;;;;;;;28.95;36.83;99927.84;5100607;28;990;-33
2021/07/19 11:00:25;;;;;;;;;;;;;;;28.67;36.61;99926.31;5100753;28;718;-33
2021/07/19 11:02:59;;;;;;;;;;;;;;;28.85;36.77;99932.88;5100702;28;768;-35
2021/07/19 11:05:24;;;;;;;;;;;;;;;29.00;36.84;99932.63;5100655;28;740;-33
2021/07/19 11:07:49;;;;;;;;;;;;;;;29.09;36.85;99927.81;5082116;28;1460;-42
2021/07/19 11:10:15;;;;;;;;;;;;;;;29.10;36.91;99926.75;5100672;28;816;-47
2021/07/19 11:12:50;;;;;;;;;;;;;;;28.04;37.26;99752.78;5099515;28;1902;-32
2021/07/19 11:15:15;;;;;;;;;;;;;;;29.07;37.60;99922.63;5100567;28;780;-44
2021/07/19 11:17:41;;;;;;;;;;;;;;;29.08;37.54;99924.25;5100569;28;739;-33
2021/07/19 11:20:15;;;;;;;;;;;;;;;29.26;37.34;99930.00;5099905;28;807;-41
2021/07/19 11:22:41;;;;;;;;;;;;;;;29.28;37.24;99928.72;5100384;28;816;-34
2021/07/19 11:25:10;;;;;;;;;;;;;;;29.29;37.39;99924.16;5099826;28;843;-42
2021/07/19 11:27:36;;;;;;;;;;;;;;;29.25;37.36;99925.63;5099621;28;966;-33
2021/07/19 11:30:08;;;;;;;;;;;;;;;29.28;37.29;99925.22;5100272;28;974;-33
2021/07/19 11:32:33;;;;;;;;;;;;;;;29.19;37.73;99928.19;5100012;28;1898;-32
2021/07/19 11:35:11;;;;;;;;;;;;;;;29.22;37.51;99921.47;5100018;28;732;-32
2021/07/19 11:37:38;;;;;;;;;;;;;;;29.19;37.57;99920.06;5099952;28;798;-31
2021/07/19 11:40:04;;;;;;;;;;;;;;;29.22;37.60;99916.06;5099814;28;851;-32
2021/07/19 11:42:40;;;;;;;;;;;;;;;29.15;37.62;99929.66;5099056;28;982;-39
2021/07/19 11:45:11;;;;;;;;;;;;;;;29.25;37.75;99926.47;5099834;28;807;-34
2021/07/19 11:47:56;;;;;;;;;;;;;;;29.23;37.92;99928.56;5099331;28;1189;-32
2021/07/19 11:50:22;;;;;;;;;;;;;;;29.24;38.03;99918.56;5099965;28;806;-32
2021/07/19 11:52:49;;;;;;;;;;;;;;;29.26;37.96;99917.28;5099485;28;1981;-32
2021/07/19 11:55:15;;;;;;;;;;;;;;;29.12;38.21;99921.13;5098603;28;862;-34
2021/07/19 11:57:44;;;;;;;;;;;;;;;29.13;38.08;99920.09;5099279;28;1022;-35
2021/07/19 12:00:10;;;;;;;;;;;;;;;29.02;38.26;99921.59;5099406;28;957;-47
2021/07/19 12:02:36;;;;;;;;;;;;;;;29.15;38.06;99918.81;5099774;28;719;-35
2021/07/19 12:05:01;;;;;;;;;;;;;;;29.08;38.25;99910.72;5099003;28;518;-35
2021/07/19 12:07:26;;;;;;;;;;;;;;;29.13;38.24;99906.56;5099506;28;743;-35
2021/07/19 12:09:58;;;;;;;;;;;;;;;29.11;38.26;99914.06;5099703;28;846;-45
2021/07/19 12:12:23;;;;;;;;;;;;;;;29.20;37.86;99921.72;5098606;28;1898;-36
2021/07/19 12:14:56;;;;;;;;;;;;;;;29.25;38.08;99915.63;5099238;28;799;-35
2021/07/19 12:17:30;;;;;;;;;;;;;;;29.16;38.30;99912.34;5098603;28;811;-36
2021/07/19 12:19:56;;;;;;;;;;;;;;;29.16;37.96;99914.25;5099266;28;757;-33
2021/07/19 12:22:21;;;;;;;;;;;;;;;29.27;38.05;99910.00;5098832;28;842;-35
2021/07/19 12:24:49;;;;;;;;;;;;;;;29.23;38.06;99917.72;5099187;28;779;-38
2021/07/19 12:27:14;;;;;;;;;;;;;;;29.16;38.05;99917.75;5079186;28;1014;-38
2021/07/19 12:29:42;;;;;;;;;;;;;;;29.02;38.49;99910.75;5080748;28;1432;-35
2021/07/19 12:32:10;;;;;;;;;;;;;;;28.98;38.39;99913.06;5098624;28;1961;-37
2021/07/19 12:34:36;;;;;;;;;;;;;;;29.00;38.46;99915.56;5099261;28;844;-38
2021/07/19 12:37:03;;;;;;;;;;;;;;;29.06;38.58;99920.13;5098361;28;793;-38
2021/07/19 12:39:29;;;;;;;;;;;;;;;28.95;38.61;99913.47;5099009;28;870;-47
2021/07/19 12:41:54;;;;;;;;;;;;;;;28.96;38.70;99913.25;5098713;28;947;-38
2021/07/19 12:44:21;;;;;;;;;;;;;;;29.10;38.50;99907.81;5080418;28;776;-38
2021/07/19 12:46:46;;;;;;;;;;;;;;;29.04;38.56;99914.94;5080337;28;1072;-36
2021/07/19 12:49:12;;;;;;;;;;;;;;;29.20;38.28;99913.56;5098669;28;1287;-40
2021/07/19 12:51:37;;;;;;;;;;;;;;;29.09;38.47;99906.16;5089294;28;1918;-46
2021/07/19 12:54:03;;;;;;;;;;;;;;;29.14;38.53;99914.47;5078495;28;780;-38
2021/07/19 12:56:29;;;;;;;;;;;;;;;29.16;38.34;99906.13;5083896;28;998;-38
2021/07/19 12:58:58;;;;;;;;;;;;;;;29.04;38.28;99908.69;5098079;28;821;-46
2021/07/19 13:01:39;;;;;;;;;;;;;;;29.11;38.28;99916.75;5098521;28;815;-38